Time;durP1;ratioP1;P1;durP2;ratioP2;P2;SDS_P1;SDS_P2;PMS_P1;PMS_P2;Temp;Humidity;BMP_temperature;BMP_pressure;BME280_temperature;BME280_humidity;BME280_pressure;Samples;Min_cycle;Max_cycle;Signal;HPM_P1;HPM_P2
2023/03/29 00:00:37;;;;;;;1999.90;999.90;;;;;;;1.88;67.28;98693.50;5054041;28;20036;-74
2023/03/29 00:03:02;;;;;;;1999.90;999.90;;;;;;;1.83;67.21;98694.16;5054085;28;20024;-74
2023/03/29 00:05:32;;;;;;;1999.90;999.90;;;;;;;1.71;67.57;98687.84;5036069;28;20528;-74
2023/03/29 00:08:00;;;;;;;1999.90;999.90;;;;;;;1.63;68.42;98696.19;5069468;28;20104;-75
2023/03/29 00:10:26;;;;;;;1999.90;999.90;;;;;;;1.55;69.54;98689.22;5054043;28;20040;-73
2023/03/29 00:12:52;;;;;;;1999.90;999.90;;;;;;;1.43;70.50;98685.59;5054177;28;20428;-76
2023/03/29 00:15:19;;;;;;;1999.90;999.90;;;;;;;1.30;71.98;98669.50;5054057;28;20036;-75
2023/03/29 00:17:45;;;;;;;1999.90;999.90;;;;;;;1.36;72.03;98667.81;5054059;28;20029;-75
2023/03/29 00:20:11;;;;;;;1999.90;999.90;;;;;;;1.39;73.06;98661.97;5036414;28;20035;-74
2023/03/29 00:22:41;;;;;;;1999.90;999.90;;;;;;;1.39;72.84;98667.38;5054655;28;20079;-74
2023/03/29 00:25:07;;;;;;;1999.90;999.90;;;;;;;1.28;73.93;98651.91;5036385;28;20029;-76
2023/03/29 00:27:33;;;;;;;1999.90;999.90;;;;;;;1.19;74.06;98645.16;5054264;28;20029;-76
2023/03/29 00:29:58;;;;;;;1999.90;999.90;;;;;;;1.22;74.55;98650.09;5054061;28;20120;-76
2023/03/29 00:32:24;;;;;;;1999.90;999.90;;;;;;;1.22;74.76;98655.50;5036447;28;20120;-75
2023/03/29 00:34:50;;;;;;;1999.90;999.90;;;;;;;1.11;75.60;98650.78;5054183;28;20041;-75
2023/03/29 00:37:19;;;;;;;1999.90;999.90;;;;;;;1.18;75.50;98660.47;5051136;28;20037;-76
2023/03/29 00:39:45;;;;;;;1999.90;999.90;;;;;;;1.28;75.15;98657.31;5024476;28;20507;-74
2023/03/29 00:42:12;;;;;;;1999.90;999.90;;;;;;;1.29;75.75;98667.03;5053298;28;20067;-75
2023/03/29 00:45:02;;;;;;;1999.90;999.90;;;;;;;1.23;77.62;98662.50;5021898;28;20044;-76
2023/03/29 00:47:34;;;;;;;1999.90;999.90;;;;;;;1.29;77.40;98664.31;5015935;28;20140;-76
2023/03/29 00:50:15;;;;;;;1999.90;999.90;;;;;;;1.23;76.70;98662.50;5016051;28;20040;-74
2023/03/29 00:52:43;;;;;;;1999.90;999.90;;;;;;;1.25;76.69;98661.28;5034273;28;20112;-78
2023/03/29 00:55:17;;;;;;;1999.90;999.90;;;;;;;1.13;76.87;98660.28;5050073;28;20104;-76
2023/03/29 00:57:45;;;;;;;1999.90;999.90;;;;;;;1.02;77.36;98652.91;5035375;28;20021;-74
2023/03/29 01:00:15;;;;;;;1999.90;999.90;;;;;;;1.01;77.60;98659.34;5035344;28;20029;-75
2023/03/29 01:02:41;;;;;;;1999.90;999.90;;;;;;;0.93;78.30;98654.22;5053322;28;20052;-76
2023/03/29 01:05:13;;;;;;;1999.90;999.90;;;;;;;0.91;79.58;98642.81;5051313;28;20418;-75
2023/03/29 01:07:56;;;;;;;1999.90;999.90;;;;;;;0.94;80.68;98643.22;5052423;28;20029;-73
2023/03/29 01:10:46;;;;;;;1999.90;999.90;;;;;;;0.94;81.52;98643.22;5051804;28;20486;-74
2023/03/29 01:13:45;;;;;;;1999.90;999.90;;;;;;;1.02;81.76;98644.84;5052461;28;20025;-76
2023/03/29 01:16:12;;;;;;;1999.90;999.90;;;;;;;1.04;82.47;98648.13;5047308;28;20041;-75
2023/03/29 01:18:38;;;;;;;1999.90;999.90;;;;;;;1.03;82.20;98638.44;5052269;28;20029;-74
2023/03/29 01:21:19;;;;;;;1999.90;999.90;;;;;;;1.03;81.34;98641.91;5052058;28;20025;-74
2023/03/29 01:23:57;;;;;;;1999.90;999.90;;;;;;;1.11;81.72;98637.31;5034870;28;20024;-76
2023/03/29 01:26:35;;;;;;;1999.90;999.90;;;;;;;1.21;80.56;98629.59;5034206;28;20032;-75
2023/03/29 01:29:12;;;;;;;1999.90;999.90;;;;;;;1.15;81.00;98639.38;5034382;28;20044;-77
2023/03/29 01:31:44;;;;;;;1999.90;999.90;;;;;;;1.28;81.32;98639.28;5033891;28;20410;-77
2023/03/29 01:34:13;;;;;;;1999.90;999.90;;;;;;;1.40;80.44;98648.28;5051685;28;20013;-78
2023/03/29 01:36:48;;;;;;;1999.90;999.90;;;;;;;1.47;76.27;98640.16;5051926;28;20029;-76
2023/03/29 01:39:15;;;;;;;1999.90;999.90;;;;;;;1.47;74.35;98643.66;5051969;28;20053;-76
2023/03/29 01:41:54;;;;;;;1999.90;999.90;;;;;;;1.39;74.77;98632.34;5033863;28;20382;-76
2023/03/29 01:44:42;;;;;;;1999.90;999.90;;;;;;;1.46;76.26;98641.19;5051751;28;20486;-77
2023/03/29 01:47:17;;;;;;;1999.90;999.90;;;;;;;1.48;76.73;98636.41;5050154;28;20056;-77
2023/03/29 01:49:49;;;;;;;1999.90;999.90;;;;;;;1.44;76.31;98643.28;5051313;28;20363;-76
2023/03/29 01:52:21;;;;;;;1999.90;999.90;;;;;;;1.29;75.34;98624.75;5033711;28;20438;-77
2023/03/29 01:54:54;;;;;;;1999.90;999.90;;;;;;;1.35;75.86;98629.25;5051967;28;20053;-77
2023/03/29 01:57:21;;;;;;;1999.90;999.90;;;;;;;1.44;75.90;98638.72;5051813;28;20021;-75
2023/03/29 01:59:48;;;;;;;1999.90;999.90;;;;;;;1.40;76.78;98636.69;5033863;28;20033;-77
2023/03/29 02:02:16;;;;;;;1999.90;999.90;;;;;;;1.42;77.39;98635.41;5051975;28;20486;-77
2023/03/29 02:04:48;;;;;;;1999.90;999.90;;;;;;;1.41;76.88;98632.97;5052639;28;20052;-76
2023/03/29 02:07:17;;;;;;;1999.90;999.90;;;;;;;1.48;77.42;98644.50;5050144;28;20163;-74
2023/03/29 02:09:43;;;;;;;1999.90;999.90;;;;;;;1.54;77.00;98641.75;5033304;28;20044;-77
2023/03/29 02:12:11;;;;;;;1999.90;999.90;;;;;;;1.50;77.00;98634.34;5033128;28;20108;-76
2023/03/29 02:14:37;;;;;;;1999.90;999.90;;;;;;;1.62;77.60;98640.66;5051431;28;20036;-77
2023/03/29 02:17:14;;;;;;;1999.90;999.90;;;;;;;1.63;77.16;98642.28;5048559;28;20021;-77
2023/03/29 02:19:40;;;;;;;1999.90;999.90;;;;;;;1.61;76.71;98638.97;5050550;28;20622;-77
2023/03/29 02:22:09;;;;;;;1999.90;999.90;;;;;;;1.66;75.62;98619.47;5031455;28;20470;-77
2023/03/29 02:24:36;;;;;;;1999.90;999.90;;;;;;;1.66;75.35;98636.44;5051592;28;20029;-77
2023/03/29 02:27:02;;;;;;;1999.90;999.90;;;;;;;1.62;74.97;98624.47;5049807;28;20021;-75
2023/03/29 02:29:28;;;;;;;1999.90;999.90;;;;;;;1.64;75.04;98622.38;5024612;28;20037;-75
2023/03/29 02:32:11;;;;;;;1999.90;999.90;;;;;;;1.70;74.75;98634.13;5029316;28;20037;-76
2023/03/29 02:34:48;;;;;;;1999.90;999.90;;;;;;;1.69;74.50;98609.06;5043459;28;20513;-77
2023/03/29 02:37:18;;;;;;;1999.90;999.90;;;;;;;1.69;74.77;98602.84;5050441;28;20087;-75
2023/03/29 02:39:47;;;;;;;1999.90;999.90;;;;;;;1.69;75.17;98602.84;5050561;28;20033;-76
2023/03/29 02:42:15;;;;;;;1999.90;999.90;;;;;;;1.63;75.43;98603.72;5050511;28;20473;-78
2023/03/29 02:44:43;;;;;;;1999.90;999.90;;;;;;;1.71;75.99;98628.53;5050159;28;20073;-75
2023/03/29 02:47:21;;;;;;;1999.90;999.90;;;;;;;1.76;77.58;98628.69;5050107;28;20049;-78
2023/03/29 02:49:47;;;;;;;1999.90;999.90;;;;;;;1.99;77.41;98636.97;5050402;28;20024;-77
2023/03/29 02:52:18;;;;;;;1999.90;999.90;;;;;;;2.01;75.89;98640.25;5050496;28;20025;-78
2023/03/29 02:54:47;;;;;;;1999.90;999.90;;;;;;;1.99;75.32;98642.34;5050855;28;20163;-76
2023/03/29 02:57:12;;;;;;;1999.90;999.90;;;;;;;1.99;75.62;98636.13;5032235;28;20040;-74
2023/03/29 02:59:39;;;;;;;1999.90;999.90;;;;;;;1.96;74.15;98642.81;5050211;28;20025;-76
2023/03/29 03:02:05;;;;;;;1999.90;999.90;;;;;;;1.94;74.72;98634.09;5050322;28;20056;-76
2023/03/29 03:04:34;;;;;;;1999.90;999.90;;;;;;;1.93;76.02;98621.66;5031994;28;20036;-77
2023/03/29 03:07:00;;;;;;;1999.90;999.90;;;;;;;1.83;75.66;98597.09;5050080;28;20434;-77
2023/03/29 03:09:26;;;;;;;1999.90;999.90;;;;;;;2.09;74.22;98637.28;5049952;28;20115;-77
2023/03/29 03:11:51;;;;;;;1999.90;999.90;;;;;;;2.14;74.56;98650.91;5017217;28;20044;-76
2023/03/29 03:14:17;;;;;;;1999.90;999.90;;;;;;;2.16;74.64;98656.09;5032521;28;20039;-77
2023/03/29 03:16:43;;;;;;;1999.90;999.90;;;;;;;2.01;76.10;98640.25;5050212;28;20573;-77
2023/03/29 03:19:09;;;;;;;1999.90;999.90;;;;;;;2.12;77.43;98644.91;5050078;28;20127;-76
2023/03/29 03:21:36;;;;;;;1999.90;999.90;;;;;;;2.26;77.47;98644.75;5050001;28;20024;-77
2023/03/29 03:24:02;;;;;;;1999.90;999.90;;;;;;;2.34;76.86;98660.66;5044681;28;20114;-77
2023/03/29 03:26:30;;;;;;;1999.90;999.90;;;;;;;2.37;76.33;98649.41;5038566;28;20168;-75
2023/03/29 03:28:56;;;;;;;1999.90;999.90;;;;;;;2.38;75.47;98645.66;5033400;28;20489;-76
2023/03/29 03:31:21;;;;;;;1999.90;999.90;;;;;;;2.27;77.58;98654.50;5051428;28;20029;-76
2023/03/29 03:33:47;;;;;;;1999.90;999.90;;;;;;;2.17;78.24;98633.44;5053940;28;20025;-76
2023/03/29 03:36:13;;;;;;;1999.90;999.90;;;;;;;2.22;78.39;98640.88;5053841;28;20021;-76
2023/03/29 03:38:38;;;;;;;1999.90;999.90;;;;;;;2.16;78.50;98648.00;5035796;28;20029;-77
2023/03/29 03:41:08;;;;;;;1999.90;999.90;;;;;;;2.16;78.13;98640.69;5035962;28;20424;-76
2023/03/29 03:43:34;;;;;;;1999.90;999.90;;;;;;;2.26;78.61;98640.16;5020204;28;20095;-76
2023/03/29 03:46:00;;;;;;;1999.90;999.90;;;;;;;2.11;79.53;98627.06;5053530;28;20116;-76
2023/03/29 03:48:25;;;;;;;1999.90;999.90;;;;;;;2.07;80.07;98623.16;5036083;28;20041;-77
2023/03/29 03:50:54;;;;;;;1999.90;999.90;;;;;;;2.04;80.42;98609.28;5053465;28;20036;-76
2023/03/29 03:53:20;;;;;;;1999.90;999.90;;;;;;;1.84;81.70;98593.34;5053957;28;20036;-74
2023/03/29 03:55:48;;;;;;;1999.90;999.90;;;;;;;1.83;82.63;98605.19;5035857;28;20520;-76
2023/03/29 03:58:13;;;;;;;1999.90;999.90;;;;;;;1.94;82.53;98601.72;5053582;28;20032;-76
2023/03/29 04:00:39;;;;;;;1999.90;999.90;;;;;;;1.85;81.94;98586.88;5053333;28;20037;-73
2023/03/29 04:03:04;;;;;;;1999.90;999.90;;;;;;;1.85;82.41;98594.97;5035386;28;20466;-75
2023/03/29 04:05:30;;;;;;;1999.90;999.90;;;;;;;1.99;82.81;98611.84;5053605;28;20075;-75
2023/03/29 04:07:55;;;;;;;1999.90;999.90;;;;;;;1.99;82.16;98626.16;5053507;28;20047;-75
2023/03/29 04:10:21;;;;;;;1999.90;999.90;;;;;;;1.99;82.19;98606.47;5053604;28;20111;-75
2023/03/29 04:12:46;;;;;;;1999.90;999.90;;;;;;;2.02;81.52;98595.22;5053695;28;20033;-75
2023/03/29 04:15:12;;;;;;;1999.90;999.90;;;;;;;1.81;80.40;98574.91;5053583;28;20119;-77
2023/03/29 04:17:37;;;;;;;1999.90;999.90;;;;;;;1.83;81.11;98597.09;5053479;28;20021;-78
2023/03/29 04:20:10;;;;;;;1999.90;999.90;;;;;;;1.74;81.45;98590.34;5052979;28;20025;-75
2023/03/29 04:22:37;;;;;;;1999.90;999.90;;;;;;;1.81;80.20;98585.72;5035440;28;20029;-75
2023/03/29 04:25:03;;;;;;;1999.90;999.90;;;;;;;1.87;79.53;98592.06;5053431;28;20025;-76
2023/03/29 04:27:28;;;;;;;1999.90;999.90;;;;;;;1.76;79.10;98555.88;5053261;28;20083;-76
2023/03/29 04:29:53;;;;;;;1999.90;999.90;;;;;;;1.86;78.78;98582.31;5053167;28;20388;-75
2023/03/29 04:32:19;;;;;;;1999.90;999.90;;;;;;;1.86;78.43;98583.16;5035322;28;20029;-74
2023/03/29 04:34:44;;;;;;;1999.90;999.90;;;;;;;1.70;79.31;98575.66;5053269;28;20498;-76
2023/03/29 04:37:10;;;;;;;1999.90;999.90;;;;;;;1.63;78.60;98572.19;5053389;28;20056;-76
2023/03/29 04:39:36;;;;;;;1999.90;999.90;;;;;;;1.71;79.58;98580.00;5053388;28;20033;-75
2023/03/29 04:42:02;;;;;;;1999.90;999.90;;;;;;;1.78;79.96;98583.47;5053314;28;20025;-76
2023/03/29 04:44:28;;;;;;;1999.90;999.90;;;;;;;1.76;81.55;98565.84;5035901;28;20382;-75
2023/03/29 04:46:53;;;;;;;1999.90;999.90;;;;;;;1.83;80.85;98567.41;5053613;28;20042;-75
2023/03/29 04:49:18;;;;;;;1999.90;999.90;;;;;;;1.81;80.93;98564.13;5053138;28;20086;-76
2023/03/29 04:51:44;;;;;;;1999.90;999.90;;;;;;;1.88;80.82;98570.25;5053004;28;20115;-77
2023/03/29 04:54:10;;;;;;;1999.90;999.90;;;;;;;2.07;79.99;98592.66;5053872;28;20108;-75
2023/03/29 04:56:35;;;;;;;1999.90;999.90;;;;;;;2.02;79.23;98592.53;5055053;28;20029;-74
2023/03/29 04:59:01;;;;;;;1999.90;999.90;;;;;;;2.08;78.97;98592.44;5034438;28;20037;-74
2023/03/29 05:01:27;;;;;;;1999.90;999.90;;;;;;;2.02;80.16;98596.03;5052526;28;20029;-76
2023/03/29 05:03:53;;;;;;;1999.90;999.90;;;;;;;2.09;80.14;98583.31;5034623;28;20120;-77
2023/03/29 05:06:18;;;;;;;1999.90;999.90;;;;;;;2.11;79.81;98583.06;5034536;28;20120;-76
2023/03/29 05:08:44;;;;;;;1999.90;999.90;;;;;;;1.98;78.98;98578.66;5052958;28;20467;-78
2023/03/29 05:11:10;;;;;;;1999.90;999.90;;;;;;;2.12;80.10;98585.56;5053542;28;20165;-76
2023/03/29 05:13:36;;;;;;;1999.90;999.90;;;;;;;2.14;78.86;98596.94;5052355;28;20037;-75
2023/03/29 05:16:03;;;;;;;1999.90;999.90;;;;;;;2.23;78.05;98589.34;5051766;28;20035;-74
2023/03/29 05:18:29;;;;;;;1999.90;999.90;;;;;;;2.30;78.07;98592.81;5051360;28;20028;-77
2023/03/29 05:20:57;;;;;;;1999.90;999.90;;;;;;;2.22;78.57;98581.50;5048861;28;20490;-78
2023/03/29 05:23:22;;;;;;;1999.90;999.90;;;;;;;2.35;77.94;98575.94;5052684;28;20440;-75
2023/03/29 05:25:48;;;;;;;1999.90;999.90;;;;;;;2.38;79.29;98586.28;5051978;28;20028;-76
2023/03/29 05:28:14;;;;;;;1999.90;999.90;;;;;;;2.25;77.27;98575.66;5030514;28;20426;-77
2023/03/29 05:30:46;;;;;;;1999.90;999.90;;;;;;;2.34;77.53;98571.59;5051069;28;20033;-75
2023/03/29 05:33:11;;;;;;;1999.90;999.90;;;;;;;2.56;77.29;98597.88;5051560;28;20060;-81
2023/03/29 05:35:37;;;;;;;1999.90;999.90;;;;;;;2.59;78.00;98604.69;5055659;28;20036;-84
2023/03/29 05:38:03;;;;;;;1999.90;999.90;;;;;;;2.63;76.84;98605.88;5056407;28;20017;-74
2023/03/29 05:40:30;;;;;;;1999.90;999.90;;;;;;;2.68;76.96;98608.72;5048298;28;20060;-75
2023/03/29 05:42:57;;;;;;;1999.90;999.90;;;;;;;2.72;76.24;98606.38;5052399;28;20056;-76
2023/03/29 05:45:23;;;;;;;1999.90;999.90;;;;;;;2.78;75.50;98602.75;5049753;28;20531;-74
2023/03/29 05:47:49;;;;;;;1999.90;999.90;;;;;;;2.72;74.65;98599.13;5053048;28;20040;-75
2023/03/29 05:50:14;;;;;;;1999.90;999.90;;;;;;;2.81;75.25;98597.72;5050279;28;20021;-74
2023/03/29 05:52:40;;;;;;;1999.90;999.90;;;;;;;2.85;75.23;98592.69;5050149;28;20033;-74
2023/03/29 05:55:06;;;;;;;1999.90;999.90;;;;;;;2.83;74.38;98595.63;5032269;28;20101;-73
2023/03/29 05:57:36;;;;;;;1999.90;999.90;;;;;;;2.97;73.89;98607.06;5048399;28;20124;-75
2023/03/29 06:00:15;;;;;;;1999.90;999.90;;;;;;;2.91;73.62;98603.41;5049314;28;20025;-74
2023/03/29 06:02:41;;;;;;;1999.90;999.90;;;;;;;3.11;73.76;98612.03;5041188;28;20022;-75
2023/03/29 06:05:07;;;;;;;1999.90;999.90;;;;;;;3.23;73.45;98612.88;5050835;28;20035;-74
2023/03/29 06:07:33;;;;;;;1999.90;999.90;;;;;;;3.41;73.35;98603.03;5051089;28;20017;-82
2023/03/29 06:09:58;;;;;;;1999.90;999.90;;;;;;;3.60;72.47;98618.91;5053570;28;20058;-81
2023/03/29 06:12:25;;;;;;;1999.90;999.90;;;;;;;3.77;71.51;98624.44;5059482;28;20683;-83
2023/03/29 06:14:50;;;;;;;1999.90;999.90;;;;;;;4.19;70.51;98634.09;5036547;28;20079;-82
2023/03/29 06:17:16;;;;;;;1999.90;999.90;;;;;;;4.47;68.21;98624.38;5052346;28;20029;-84
2023/03/29 06:19:43;;;;;;;1999.90;999.90;;;;;;;4.51;67.36;98625.56;5052773;28;20435;-81
2023/03/29 06:22:08;;;;;;;1999.90;999.90;;;;;;;4.39;67.27;98616.59;5058235;28;20053;-81
2023/03/29 06:24:34;;;;;;;1999.90;999.90;;;;;;;4.44;66.09;98603.19;5045393;28;20086;-81
2023/03/29 06:27:00;;;;;;;1999.90;999.90;;;;;;;4.60;65.06;98580.75;5055771;28;20021;-84
2023/03/29 06:29:25;;;;;;;1999.90;999.90;;;;;;;4.84;64.23;98596.69;5040965;28;20108;-86
2023/03/29 06:31:52;;;;;;;1999.90;999.90;;;;;;;4.56;62.18;98609.38;5057726;28;20562;-84
2023/03/29 06:34:17;;;;;;;1999.90;999.90;;;;;;;4.82;60.66;98606.13;5058019;28;20056;-83
2023/03/29 06:36:44;;;;;;;1999.90;999.90;;;;;;;4.72;61.44;98614.03;5056340;28;20458;-83
2023/03/29 06:39:10;;;;;;;1999.90;999.90;;;;;;;4.63;62.31;98585.69;5042324;28;20029;-84
2023/03/29 06:41:35;;;;;;;1999.90;999.90;;;;;;;4.79;62.16;98593.06;5048492;28;20112;-76
2023/03/29 06:44:01;;;;;;;1999.90;999.90;;;;;;;5.05;62.43;98595.16;5042974;28;20072;-81
2023/03/29 06:46:28;;;;;;;1999.90;999.90;;;;;;;5.40;61.54;98586.81;5040768;28;20041;-81
2023/03/29 06:48:53;;;;;;;1999.90;999.90;;;;;;;5.34;61.64;98583.19;5061586;28;20047;-83
2023/03/29 06:51:19;;;;;;;1999.90;999.90;;;;;;;5.28;62.66;98573.31;5069793;28;20017;-84
2023/03/29 06:53:45;;;;;;;1999.90;999.90;;;;;;;5.22;63.29;98571.59;5064767;28;20028;-85
2023/03/29 06:56:10;;;;;;;1999.90;999.90;;;;;;;5.58;66.31;98585.72;5069304;28;20479;-84
2023/03/29 06:58:36;;;;;;;1999.90;999.90;;;;;;;5.49;64.10;98579.06;5049194;28;20058;-82
2023/03/29 07:01:02;;;;;;;1999.90;999.90;;;;;;;5.52;62.46;98594.84;5071590;28;20032;-87
2023/03/29 07:03:28;;;;;;;1999.90;999.90;;;;;;;5.65;61.24;98587.22;5068667;28;20039;-85
2023/03/29 07:06:01;;;;;;;1999.90;999.90;;;;;;;6.31;62.74;98594.44;5049080;28;20012;-90
2023/03/29 07:08:30;;;;;;;1999.90;999.90;;;;;;;6.14;59.25;98593.63;5068865;28;20029;-86
2023/03/29 07:10:57;;;;;;;1999.90;999.90;;;;;;;6.32;58.70;98596.06;5067587;28;20025;-82
2023/03/29 07:13:25;;;;;;;1999.90;999.90;;;;;;;7.04;57.35;98609.41;5052434;28;20025;-87
2023/03/29 07:15:50;;;;;;;1999.90;999.90;;;;;;;7.37;54.28;98609.19;5058530;28;20009;-84
2023/03/29 07:18:17;;;;;;;1999.90;999.90;;;;;;;7.53;52.41;98602.78;5057877;28;20029;-85
2023/03/29 07:20:43;;;;;;;1999.90;999.90;;;;;;;7.46;52.68;98613.06;5041138;28;20128;-83
2023/03/29 07:23:10;;;;;;;1999.90;999.90;;;;;;;7.61;53.13;98614.28;5039250;28;20025;-83
2023/03/29 07:25:37;;;;;;;1999.90;999.90;;;;;;;7.50;51.78;98611.47;5037797;28;20017;-86
2023/03/29 07:28:03;;;;;;;1999.90;999.90;;;;;;;7.63;49.87;98615.66;5041907;28;20085;-87
2023/03/29 07:30:30;;;;;;;1999.90;999.90;;;;;;;7.26;51.67;98610.19;5060119;28;20575;-89
2023/03/29 07:32:57;;;;;;;1999.90;999.90;;;;;;;7.67;51.14;98622.25;5047170;28;20470;-86
2023/03/29 07:35:24;;;;;;;1999.90;999.90;;;;;;;8.14;50.74;98619.59;5037835;28;20478;-84
2023/03/29 07:37:49;;;;;;;1999.90;999.90;;;;;;;8.43;49.88;98618.13;5038500;28;20021;-84
2023/03/29 07:40:17;;;;;;;1999.90;999.90;;;;;;;8.98;49.07;98614.00;5055662;28;20071;-83
2023/03/29 07:42:46;;;;;;;1999.90;999.90;;;;;;;9.38;46.05;98616.81;5054411;28;20458;-86
2023/03/29 07:45:15;;;;;;;1999.90;999.90;;;;;;;9.26;45.15;98602.59;5052340;28;20032;-89
2023/03/29 07:47:41;;;;;;;1999.90;999.90;;;;;;;9.55;44.47;98598.22;5056043;28;20041;-85
2023/03/29 07:50:07;;;;;;;1999.90;999.90;;;;;;;9.77;42.88;98600.72;5032138;28;20036;-84
2023/03/29 07:52:35;;;;;;;1999.90;999.90;;;;;;;9.50;44.22;98595.50;5054339;28;20162;-88
2023/03/29 07:55:01;;;;;;;1999.90;999.90;;;;;;;9.95;43.53;98596.59;5039409;28;20021;-87
2023/03/29 07:57:26;;;;;;;1999.90;999.90;;;;;;;10.28;41.23;98603.38;5055526;28;20036;-85
2023/03/29 07:59:52;;;;;;;1999.90;999.90;;;;;;;10.80;38.04;98601.03;5056726;28;20033;-85
2023/03/29 08:02:19;;;;;;;1999.90;999.90;;;;;;;11.07;38.64;98593.22;5053562;28;20021;-86
2023/03/29 08:04:45;;;;;;;1999.90;999.90;;;;;;;12.32;36.99;98590.53;5053109;28;20466;-89
2023/03/29 08:07:11;;;;;;;1999.90;999.90;;;;;;;11.81;38.13;98595.69;5060205;28;20047;-83
2023/03/29 08:09:37;;;;;;;1999.90;999.90;;;;;;;14.00;35.51;98595.34;5040858;28;20033;-83
2023/03/29 08:12:03;;;;;;;1999.90;999.90;;;;;;;14.22;34.72;98592.72;5062444;28;20111;-88
2023/03/29 08:14:29;;;;;;;1999.90;999.90;;;;;;;15.15;33.23;98604.41;5050560;28;20035;-84
2023/03/29 08:16:54;;;;;;;1999.90;999.90;;;;;;;14.53;33.59;98590.28;5043938;28;20029;-87
2023/03/29 08:19:20;;;;;;;1999.90;999.90;;;;;;;15.22;32.44;98599.28;5058937;28;20120;-88
2023/03/29 08:21:46;;;;;;;1999.90;999.90;;;;;;;16.70;30.43;98595.28;5059261;28;20040;-86
2023/03/29 08:24:11;;;;;;;1999.90;999.90;;;;;;;17.61;28.51;98594.22;5041171;28;20061;-85
2023/03/29 08:26:36;;;;;;;1999.90;999.90;;;;;;;16.86;29.09;98577.97;5057392;28;20071;-91
2023/03/29 08:29:02;;;;;;;1999.90;999.90;;;;;;;17.77;28.87;98577.94;5057577;28;20041;-83
2023/03/29 08:31:28;;;;;;;1999.90;999.90;;;;;;;17.10;29.19;98592.16;5057830;28;20017;-83
2023/03/29 08:33:53;;;;;;;1999.90;999.90;;;;;;;17.11;28.45;98590.22;5056779;28;20017;-82
2023/03/29 08:36:19;;;;;;;1999.90;999.90;;;;;;;17.47;27.66;98581.66;5038562;28;20036;-84
2023/03/29 08:38:45;;;;;;;1999.90;999.90;;;;;;;17.79;27.72;98589.50;5055723;28;20052;-86
2023/03/29 08:41:43;;;;;;;1999.90;999.90;;;;;;;16.96;28.59;98590.69;5036761;28;20028;-86
2023/03/29 08:44:19;;;;;;;1999.90;999.90;;;;;;;17.50;27.65;98586.53;5036955;28;20211;-80
2023/03/29 08:46:54;;;;;;;1999.90;999.90;;;;;;;14.65;31.35;98575.97;5057028;28;20146;-84
2023/03/29 08:49:21;;;;;;;1999.90;999.90;;;;;;;17.41;28.32;98577.44;5037857;28;20031;-89
2023/03/29 08:51:51;;;;;;;1999.90;999.90;;;;;;;16.21;28.91;98577.03;5037582;28;20037;-79
2023/03/29 08:54:23;;;;;;;1999.90;999.90;;;;;;;17.14;28.41;98571.03;5039321;28;20029;-87
2023/03/29 08:56:50;;;;;;;1999.90;999.90;;;;;;;18.58;26.75;98580.69;5036422;28;20100;-78
2023/03/29 08:59:27;;;;;;;1999.90;999.90;;;;;;;19.36;25.84;98576.34;5054071;28;20031;-80
2023/03/29 09:01:55;;;;;;;1999.90;999.90;;;;;;;19.05;26.03;98582.25;5055039;28;20039;-84
2023/03/29 09:04:34;;;;;;;1999.90;999.90;;;;;;;17.44;27.91;98554.66;5054888;28;20112;-85
2023/03/29 09:07:02;;;;;;;1999.90;999.90;;;;;;;17.08;28.10;98544.69;5055451;28;20028;-82
2023/03/29 09:09:31;;;;;;;1999.90;999.90;;;;;;;18.46;26.40;98552.84;5058126;28;20031;-81
2023/03/29 09:12:15;;;;;;;1999.90;999.90;;;;;;;18.95;25.91;98554.91;5057729;28;20023;-89
2023/03/29 09:14:52;;;;;;;1999.90;999.90;;;;;;;18.76;25.66;98551.78;5061966;28;20529;-83
2023/03/29 09:17:46;;;;;;;1999.90;999.90;;;;;;;19.23;25.75;98547.69;5039751;28;20025;-82
2023/03/29 09:20:49;;;;;;;1999.90;999.90;;;;;;;18.60;26.45;98537.66;5039638;28;20024;-84
2023/03/29 09:23:36;;;;;;;1999.90;999.90;;;;;;;18.93;25.89;98535.03;5039666;28;20029;-86
2023/03/29 09:26:23;;;;;;;1999.90;999.90;;;;;;;19.09;25.95;98533.28;5038676;28;20474;-83
2023/03/29 09:28:52;;;;;;;1999.90;999.90;;;;;;;19.89;25.03;98522.84;5037408;28;20389;-82
2023/03/29 09:31:21;;;;;;;1999.90;999.90;;;;;;;18.00;26.70;98520.41;5037665;28;20024;-84
2023/03/29 09:34:08;;;;;;;1999.90;999.90;;;;;;;18.42;27.57;98507.56;5037619;28;20025;-81
2023/03/29 09:36:55;;;;;;;1999.90;999.90;;;;;;;18.01;28.64;98503.47;5058644;28;20049;-87
2023/03/29 09:39:22;;;;;;;1999.90;999.90;;;;;;;19.04;28.28;98496.63;5048245;28;20094;-80
2023/03/29 09:42:18;;;;;;;1999.90;999.90;;;;;;;20.18;26.73;98506.03;5043303;28;20021;-83
2023/03/29 09:44:49;;;;;;;1999.90;999.90;;;;;;;20.24;26.37;98498.25;5044736;28;20131;-84
2023/03/29 09:47:20;;;;;;;1999.90;999.90;;;;;;;19.09;28.31;98488.09;5056703;28;20048;-83
2023/03/29 09:49:54;;;;;;;1999.90;999.90;;;;;;;20.02;27.62;98493.94;5057645;28;20436;-86
2023/03/29 09:52:20;;;;;;;1999.90;999.90;;;;;;;20.80;26.71;98474.31;5058457;28;20021;-82
2023/03/29 09:54:45;;;;;;;1999.90;999.90;;;;;;;21.26;25.97;98473.81;5038382;28;20100;-81
2023/03/29 09:57:14;;;;;;;1999.90;999.90;;;;;;;21.08;27.01;98472.41;5059648;28;20521;-82
2023/03/29 09:59:39;;;;;;;1999.90;999.90;;;;;;;20.95;26.85;98484.75;5063072;28;20028;-81
2023/03/29 10:02:11;;;;;;;1999.90;999.90;;;;;;;21.61;25.73;98473.22;5058499;28;20021;-82
2023/03/29 10:04:38;;;;;;;1999.90;999.90;;;;;;;21.51;25.63;98460.63;5066152;28;20029;-81
2023/03/29 10:07:05;;;;;;;1999.90;999.90;;;;;;;21.43;26.24;98460.75;5067240;28;20005;-83
2023/03/29 10:09:31;;;;;;;1999.90;999.90;;;;;;;22.01;25.92;98462.81;5067237;28;20036;-82
2023/03/29 10:12:02;;;;;;;1999.90;999.90;;;;;;;20.13;27.23;98466.53;5064143;28;20029;-85
2023/03/29 10:14:40;;;;;;;1999.90;999.90;;;;;;;18.15;30.29;98436.81;5057678;28;20036;-82
2023/03/29 10:17:14;;;;;;;1999.90;999.90;;;;;;;18.16;30.68;98438.44;5054578;28;20025;-81
2023/03/29 10:19:48;;;;;;;1999.90;999.90;;;;;;;18.45;30.49;98435.66;5037214;28;20041;-84
2023/03/29 10:22:18;;;;;;;1999.90;999.90;;;;;;;18.41;29.96;98436.69;5055582;28;20474;-83
2023/03/29 10:24:51;;;;;;;1999.90;999.90;;;;;;;18.01;30.63;98434.25;5055954;28;20211;-86
2023/03/29 10:27:23;;;;;;;1999.90;999.90;;;;;;;17.49;31.42;98430.81;5056639;28;20478;-83
2023/03/29 10:29:50;;;;;;;1999.90;999.90;;;;;;;19.67;28.76;98424.09;5056488;28;20029;-85
2023/03/29 10:32:24;;;;;;;1999.90;999.90;;;;;;;19.17;30.28;98410.34;5039194;28;20045;-87
2023/03/29 10:34:50;;;;;;;1999.90;999.90;;;;;;;19.11;30.55;98422.00;5062193;28;20032;-80
2023/03/29 10:37:20;;;;;;;1999.90;999.90;;;;;;;18.05;31.28;98403.94;5056085;28;20033;-87
2023/03/29 10:39:47;;;;;;;1999.90;999.90;;;;;;;18.27;31.58;98408.38;5061803;28;20036;-88
2023/03/29 10:42:16;;;;;;;1999.90;999.90;;;;;;;18.06;32.31;98400.03;5060541;28;20025;-84
2023/03/29 10:44:50;;;;;;;1999.90;999.90;;;;;;;19.01;31.47;98400.25;5061041;28;20536;-87
2023/03/29 10:47:19;;;;;;;1999.90;999.90;;;;;;;19.44;30.17;98388.75;5063149;28;20056;-84
2023/03/29 10:49:57;;;;;;;1999.90;999.90;;;;;;;18.57;31.48;98382.34;5062053;28;20055;-84
2023/03/29 10:52:23;;;;;;;1999.90;999.90;;;;;;;18.45;31.72;98379.47;5061739;28;20025;-93
2023/03/29 10:54:51;;;;;;;1999.90;999.90;;;;;;;19.50;30.56;98379.06;5047249;28;20036;-88
2023/03/29 10:57:36;;;;;;;1999.90;999.90;;;;;;;19.90;30.09;98390.34;5047096;28;20029;-85
2023/03/29 11:00:05;;;;;;;1999.90;999.90;;;;;;;19.78;30.04;98388.38;5045540;28;20033;-88
2023/03/29 11:02:55;;;;;;;1999.90;999.90;;;;;;;20.01;29.77;98381.25;5059829;28;20486;-83
2023/03/29 11:05:21;;;;;;;1999.90;999.90;;;;;;;19.32;31.31;98378.41;5059754;28;20024;-83
2023/03/29 11:08:11;;;;;;;1999.90;999.90;;;;;;;17.52;32.84;98372.06;5057402;28;20546;-82